DLH8FL ENBR-EDDF
Flight info
| Callsign | DLH8FL |
|---|---|
| Flight time | 1h 42m |
| Altitude | 37000 |
| Route | TUXIL DCT ZOL DCT GREFI DCT SOGPO DCT DIXAT DIXAT1A |
| Aircraft | A320/M-SDE2E3FGIJ1LORWXYZHB1/LB1 |
Departure
| Time | 2026-05-06 19:53 |
|---|---|
| Airport | Bergen Airport, Flesland (ENBR) |
Arrival
| Time | 2026-05-06 21:35 |
|---|---|
| Airport | Frankfurt Main Airport (EDDF) |
| Time | Latitude | Longitude | Altitude | Speed | Heading |
|---|---|---|---|---|---|
| 2026-05-06 19:12 | 60.28860 | 5.22573 | 173 ft | 0 kts | 59° |
| 2026-05-06 19:41 | 60.28857 | 5.22562 | 173 ft | 4 kts | 62° |
| 2026-05-06 19:41 | 60.28848 | 5.22512 | 172 ft | 4 kts | 81° |
| 2026-05-06 19:42 | 60.28845 | 5.22462 | 169 ft | 2 kts | 83° |
| 2026-05-06 19:42 | 60.28845 | 5.22459 | 168 ft | 1 kts | 83° |
| 2026-05-06 19:45 | 60.28845 | 5.22460 | 168 ft | 1 kts | 83° |
| 2026-05-06 19:45 | 60.28869 | 5.22438 | 168 ft | 8 kts | 329° |
| 2026-05-06 19:45 | 60.28920 | 5.22394 | 166 ft | 8 kts | 344° |
| 2026-05-06 19:45 | 60.28934 | 5.22316 | 163 ft | 10 kts | 265° |
| 2026-05-06 19:46 | 60.29005 | 5.22245 | 162 ft | 14 kts | 353° |
| 2026-05-06 19:46 | 60.29102 | 5.22222 | 163 ft | 9 kts | 353° |
| 2026-05-06 19:46 | 60.29162 | 5.22201 | 163 ft | 10 kts | 348° |
| 2026-05-06 19:46 | 60.29244 | 5.22167 | 163 ft | 14 kts | 348° |
| 2026-05-06 19:47 | 60.29358 | 5.22136 | 160 ft | 20 kts | 351° |
| 2026-05-06 19:47 | 60.29512 | 5.22083 | 155 ft | 25 kts | 350° |
| 2026-05-06 19:47 | 60.29697 | 5.22020 | 148 ft | 28 kts | 351° |
| 2026-05-06 19:47 | 60.29875 | 5.21961 | 153 ft | 23 kts | 351° |
| 2026-05-06 19:48 | 60.30023 | 5.21906 | 158 ft | 21 kts | 345° |
| 2026-05-06 19:48 | 60.30160 | 5.21860 | 164 ft | 19 kts | 352° |
| 2026-05-06 19:48 | 60.30293 | 5.21818 | 167 ft | 19 kts | 351° |
| 2026-05-06 19:48 | 60.30412 | 5.21778 | 172 ft | 17 kts | 351° |
| 2026-05-06 19:49 | 60.30522 | 5.21742 | 177 ft | 15 kts | 350° |
| 2026-05-06 19:49 | 60.30615 | 5.21710 | 180 ft | 12 kts | 348° |
| 2026-05-06 19:49 | 60.30666 | 5.21634 | 182 ft | 7 kts | 276° |
| 2026-05-06 19:49 | 60.30662 | 5.21579 | 182 ft | 0 kts | 261° |
| 2026-05-06 19:51 | 60.30653 | 5.21460 | 197 ft | 16 kts | 261° |
| 2026-05-06 19:51 | 60.30602 | 5.21394 | 183 ft | 9 kts | 171° |
| 2026-05-06 19:51 | 60.30586 | 5.21400 | 182 ft | 2 kts | 171° |
| 2026-05-06 19:52 | 60.30570 | 5.21405 | 181 ft | 12 kts | 171° |
| 2026-05-06 19:52 | 60.30320 | 5.21484 | 166 ft | 70 kts | 171° |
| 2026-05-06 19:52 | 60.29608 | 5.21725 | 149 ft | 133 kts | 171° |
| 2026-05-06 19:52 | 60.28570 | 5.22072 | 393 ft | 156 kts | 171° |
| 2026-05-06 19:53 | 60.27501 | 5.22462 | 1031 ft | 158 kts | 171° |
| 2026-05-06 19:53 | 60.26381 | 5.22860 | 1479 ft | 173 kts | 172° |
| 2026-05-06 19:53 | 60.25117 | 5.23254 | 1755 ft | 196 kts | 172° |
| 2026-05-06 19:53 | 60.23707 | 5.23726 | 2017 ft | 221 kts | 171° |
| 2026-05-06 19:54 | 60.22108 | 5.24252 | 2428 ft | 245 kts | 172° |
| 2026-05-06 19:54 | 60.20377 | 5.24821 | 3090 ft | 257 kts | 172° |
| 2026-05-06 19:54 | 60.18596 | 5.25412 | 3976 ft | 261 kts | 172° |
| 2026-05-06 19:54 | 60.16785 | 5.26013 | 4876 ft | 265 kts | 172° |
| 2026-05-06 19:55 | 60.14957 | 5.26616 | 5766 ft | 268 kts | 173° |
| 2026-05-06 19:55 | 60.13101 | 5.27231 | 6636 ft | 272 kts | 173° |
| 2026-05-06 19:55 | 60.11225 | 5.27857 | 7461 ft | 275 kts | 173° |
| 2026-05-06 19:55 | 60.09325 | 5.28489 | 8271 ft | 279 kts | 173° |
| 2026-05-06 19:56 | 60.07388 | 5.29074 | 9098 ft | 283 kts | 175° |
| 2026-05-06 19:56 | 60.05426 | 5.29604 | 9896 ft | 286 kts | 176° |
| 2026-05-06 19:56 | 60.03435 | 5.30118 | 10422 ft | 299 kts | 176° |
| 2026-05-06 19:56 | 60.01287 | 5.30659 | 10632 ft | 323 kts | 176° |
| 2026-05-06 19:57 | 59.98981 | 5.31244 | 10814 ft | 346 kts | 176° |
| 2026-05-06 19:57 | 59.96534 | 5.31878 | 11224 ft | 359 kts | 176° |
| 2026-05-06 19:57 | 59.94076 | 5.32534 | 11888 ft | 364 kts | 176° |
| 2026-05-06 19:57 | 59.91559 | 5.33211 | 12605 ft | 367 kts | 177° |
| 2026-05-06 19:58 | 59.89012 | 5.33899 | 13325 ft | 371 kts | 178° |
| 2026-05-06 19:58 | 59.86451 | 5.34592 | 14033 ft | 374 kts | 178° |
| 2026-05-06 19:58 | 59.83861 | 5.35287 | 14656 ft | 377 kts | 178° |
| 2026-05-06 19:58 | 59.81250 | 5.35980 | 15281 ft | 380 kts | 179° |
| 2026-05-06 19:59 | 59.78622 | 5.36630 | 15888 ft | 382 kts | 180° |
| 2026-05-06 19:59 | 59.75966 | 5.37145 | 16486 ft | 384 kts | 181° |
| 2026-05-06 19:59 | 59.73295 | 5.37571 | 17113 ft | 386 kts | 182° |
| 2026-05-06 19:59 | 59.70613 | 5.37957 | 17703 ft | 389 kts | 183° |
| 2026-05-06 20:00 | 59.67899 | 5.38344 | 18292 ft | 392 kts | 183° |
| 2026-05-06 20:00 | 59.65161 | 5.38750 | 18812 ft | 396 kts | 183° |
| 2026-05-06 20:00 | 59.62398 | 5.39254 | 19334 ft | 400 kts | 181° |
| 2026-05-06 20:00 | 59.59614 | 5.39912 | 19840 ft | 405 kts | 180° |
| 2026-05-06 20:01 | 59.56822 | 5.40658 | 20353 ft | 407 kts | 180° |
| 2026-05-06 20:01 | 59.54005 | 5.41441 | 20853 ft | 410 kts | 180° |
| 2026-05-06 20:01 | 59.51168 | 5.42220 | 21342 ft | 412 kts | 180° |
| 2026-05-06 20:01 | 59.48314 | 5.42979 | 21768 ft | 415 kts | 180° |
| 2026-05-06 20:02 | 59.45464 | 5.43714 | 22448 ft | 410 kts | 180° |
| 2026-05-06 20:02 | 59.42648 | 5.44432 | 23207 ft | 407 kts | 180° |
| 2026-05-06 20:02 | 59.39834 | 5.45146 | 23733 ft | 409 kts | 180° |
| 2026-05-06 20:02 | 59.37006 | 5.46001 | 24149 ft | 412 kts | 178° |
| 2026-05-06 20:03 | 59.34193 | 5.46989 | 24350 ft | 421 kts | 176° |
| 2026-05-06 20:03 | 59.31282 | 5.48091 | 24479 ft | 430 kts | 176° |
| 2026-05-06 20:03 | 59.28329 | 5.49240 | 24741 ft | 435 kts | 176° |
| 2026-05-06 20:03 | 59.25353 | 5.50397 | 25057 ft | 437 kts | 176° |
| 2026-05-06 20:04 | 59.22370 | 5.51533 | 25393 ft | 438 kts | 176° |
| 2026-05-06 20:04 | 59.19373 | 5.52642 | 25685 ft | 439 kts | 176° |
| 2026-05-06 20:04 | 59.16371 | 5.53724 | 26041 ft | 439 kts | 176° |
| 2026-05-06 20:04 | 59.13363 | 5.54791 | 26369 ft | 440 kts | 176° |
| 2026-05-06 20:05 | 59.10341 | 5.55864 | 26679 ft | 442 kts | 176° |
| 2026-05-06 20:05 | 59.07317 | 5.56940 | 26974 ft | 443 kts | 176° |
| 2026-05-06 20:05 | 59.04280 | 5.58023 | 27261 ft | 445 kts | 176° |
| 2026-05-06 20:05 | 59.01230 | 5.59113 | 27554 ft | 446 kts | 176° |
| 2026-05-06 20:06 | 58.98177 | 5.60229 | 27816 ft | 448 kts | 176° |
| 2026-05-06 20:06 | 58.95113 | 5.61366 | 28086 ft | 449 kts | 176° |
| 2026-05-06 20:06 | 58.92034 | 5.62512 | 28371 ft | 451 kts | 176° |
| 2026-05-06 20:06 | 58.88951 | 5.63649 | 28550 ft | 452 kts | 176° |
| 2026-05-06 20:07 | 58.85860 | 5.64761 | 28778 ft | 453 kts | 176° |
| 2026-05-06 20:07 | 58.82755 | 5.65878 | 29114 ft | 452 kts | 176° |
| 2026-05-06 20:07 | 58.79671 | 5.66996 | 29452 ft | 451 kts | 176° |
| 2026-05-06 20:07 | 58.76588 | 5.68122 | 29788 ft | 450 kts | 176° |
| 2026-05-06 20:08 | 58.73510 | 5.69254 | 30119 ft | 450 kts | 176° |
| 2026-05-06 20:08 | 58.71478 | 5.70004 | 30308 ft | 449 kts | 176° |
| 2026-05-06 20:08 | 58.68409 | 5.71137 | 30559 ft | 449 kts | 176° |
| 2026-05-06 20:08 | 58.65331 | 5.72221 | 30796 ft | 447 kts | 180° |
| 2026-05-06 20:09 | 58.62259 | 5.72528 | 31036 ft | 441 kts | 185° |
| 2026-05-06 20:09 | 58.58188 | 5.72708 | 31353 ft | 442 kts | 185° |
| 2026-05-06 20:09 | 58.56115 | 5.72793 | 31514 ft | 442 kts | 186° |
| 2026-05-06 20:09 | 58.52040 | 5.72955 | 31830 ft | 443 kts | 186° |
| 2026-05-06 20:10 | 58.49957 | 5.73037 | 31990 ft | 443 kts | 186° |
| 2026-05-06 20:10 | 58.46871 | 5.73157 | 32226 ft | 443 kts | 186° |
| 2026-05-06 20:10 | 58.43784 | 5.73278 | 32457 ft | 444 kts | 186° |
| 2026-05-06 20:10 | 58.40731 | 5.73395 | 32706 ft | 444 kts | 186° |
| 2026-05-06 20:11 | 58.37637 | 5.73514 | 32943 ft | 445 kts | 186° |
| 2026-05-06 20:11 | 58.34535 | 5.73632 | 33141 ft | 445 kts | 185° |
| 2026-05-06 20:11 | 58.31439 | 5.73752 | 33382 ft | 446 kts | 185° |
| 2026-05-06 20:11 | 58.28339 | 5.73877 | 33629 ft | 446 kts | 185° |
| 2026-05-06 20:12 | 58.25232 | 5.74005 | 33873 ft | 446 kts | 185° |
| 2026-05-06 20:12 | 58.22127 | 5.74134 | 34111 ft | 447 kts | 185° |
| 2026-05-06 20:12 | 58.19016 | 5.74264 | 34308 ft | 447 kts | 185° |
| 2026-05-06 20:12 | 58.15906 | 5.74390 | 34515 ft | 447 kts | 185° |
| 2026-05-06 20:13 | 58.12797 | 5.74514 | 34718 ft | 447 kts | 185° |
| 2026-05-06 20:13 | 58.09685 | 5.74638 | 34922 ft | 447 kts | 185° |
| 2026-05-06 20:13 | 58.06574 | 5.74757 | 35079 ft | 447 kts | 184° |
| 2026-05-06 20:13 | 58.03469 | 5.74875 | 35297 ft | 446 kts | 184° |
| 2026-05-06 20:14 | 58.00369 | 5.74993 | 35508 ft | 446 kts | 184° |
| 2026-05-06 20:14 | 57.97269 | 5.75110 | 35691 ft | 446 kts | 184° |
| 2026-05-06 20:14 | 57.94163 | 5.75230 | 35864 ft | 446 kts | 184° |
| 2026-05-06 20:14 | 57.91104 | 5.75350 | 36031 ft | 446 kts | 184° |
| 2026-05-06 20:15 | 57.87962 | 5.75475 | 36196 ft | 446 kts | 184° |
| 2026-05-06 20:15 | 57.84897 | 5.75598 | 36352 ft | 446 kts | 184° |
| 2026-05-06 20:15 | 57.81790 | 5.75722 | 36509 ft | 446 kts | 184° |
| 2026-05-06 20:15 | 57.78687 | 5.75844 | 36634 ft | 446 kts | 183° |
| 2026-05-06 20:16 | 57.75585 | 5.75965 | 36814 ft | 445 kts | 183° |
| 2026-05-06 20:16 | 57.72491 | 5.76086 | 36983 ft | 445 kts | 183° |
| 2026-05-06 20:16 | 57.66268 | 5.76322 | 37054 ft | 448 kts | 183° |
| 2026-05-06 20:17 | 57.60035 | 5.76560 | 37054 ft | 448 kts | 183° |
| 2026-05-06 20:17 | 57.53791 | 5.76800 | 37054 ft | 449 kts | 183° |
| 2026-05-06 20:18 | 57.47554 | 5.77037 | 37055 ft | 448 kts | 183° |
| 2026-05-06 20:18 | 57.41357 | 5.77273 | 37058 ft | 448 kts | 183° |
| 2026-05-06 20:19 | 57.35112 | 5.77520 | 37058 ft | 448 kts | 183° |
| 2026-05-06 20:19 | 57.28865 | 5.77751 | 37060 ft | 449 kts | 183° |
| 2026-05-06 20:20 | 57.22626 | 5.77992 | 37040 ft | 449 kts | 183° |
| 2026-05-06 20:20 | 57.16379 | 5.78238 | 37054 ft | 449 kts | 183° |
| 2026-05-06 20:21 | 57.10137 | 5.78469 | 37064 ft | 449 kts | 183° |
| 2026-05-06 20:21 | 57.03879 | 5.78695 | 37078 ft | 449 kts | 183° |
| 2026-05-06 20:22 | 56.97637 | 5.78915 | 37036 ft | 449 kts | 183° |
| 2026-05-06 20:22 | 56.91426 | 5.79149 | 37053 ft | 449 kts | 183° |
| 2026-05-06 20:23 | 56.85183 | 5.79380 | 37066 ft | 448 kts | 183° |
| 2026-05-06 20:23 | 56.78937 | 5.79625 | 37065 ft | 448 kts | 183° |
| 2026-05-06 20:24 | 56.72701 | 5.79859 | 37068 ft | 449 kts | 183° |
| 2026-05-06 20:24 | 56.66457 | 5.80088 | 37057 ft | 449 kts | 182° |
| 2026-05-06 20:25 | 56.60220 | 5.80313 | 37064 ft | 448 kts | 182° |
| 2026-05-06 20:25 | 56.53985 | 5.80540 | 37071 ft | 447 kts | 182° |
| 2026-05-06 20:26 | 56.47769 | 5.80757 | 37072 ft | 447 kts | 183° |
| 2026-05-06 20:26 | 56.41550 | 5.80968 | 37053 ft | 446 kts | 182° |
| 2026-05-06 20:27 | 56.35380 | 5.81189 | 37066 ft | 446 kts | 182° |
| 2026-05-06 20:27 | 56.29170 | 5.81428 | 37071 ft | 446 kts | 182° |
| 2026-05-06 20:28 | 56.22966 | 5.81649 | 37074 ft | 446 kts | 182° |
| 2026-05-06 20:28 | 56.16761 | 5.81864 | 37067 ft | 446 kts | 182° |
| 2026-05-06 20:29 | 56.10554 | 5.82082 | 37066 ft | 446 kts | 182° |
| 2026-05-06 20:29 | 56.04354 | 5.82317 | 37072 ft | 446 kts | 182° |
| 2026-05-06 20:30 | 55.95052 | 5.82655 | 37077 ft | 445 kts | 182° |
| 2026-05-06 20:31 | 55.88858 | 5.82865 | 37077 ft | 445 kts | 182° |
| 2026-05-06 20:31 | 55.82664 | 5.83070 | 37071 ft | 445 kts | 182° |
| 2026-05-06 20:32 | 55.76478 | 5.83279 | 37069 ft | 445 kts | 182° |
| 2026-05-06 20:32 | 55.70288 | 5.83495 | 37063 ft | 445 kts | 182° |
| 2026-05-06 20:33 | 55.64134 | 5.83709 | 37032 ft | 445 kts | 182° |
| 2026-05-06 20:33 | 55.57942 | 5.83914 | 37050 ft | 445 kts | 182° |
| 2026-05-06 20:34 | 55.51755 | 5.84134 | 37060 ft | 444 kts | 182° |
| 2026-05-06 20:34 | 55.48698 | 5.84248 | 37517 ft | 434 kts | 182° |
| 2026-05-06 20:34 | 55.45647 | 5.84352 | 37312 ft | 440 kts | 182° |
| 2026-05-06 20:34 | 55.42585 | 5.84453 | 37068 ft | 442 kts | 182° |
| 2026-05-06 20:35 | 55.39502 | 5.84559 | 37036 ft | 442 kts | 182° |
| 2026-05-06 20:35 | 55.33350 | 5.84775 | 37043 ft | 442 kts | 182° |
| 2026-05-06 20:36 | 55.27234 | 5.84985 | 37044 ft | 442 kts | 182° |
| 2026-05-06 20:36 | 55.21080 | 5.85185 | 37039 ft | 442 kts | 182° |
| 2026-05-06 20:37 | 55.14931 | 5.85389 | 37037 ft | 442 kts | 182° |
| 2026-05-06 20:37 | 55.08767 | 5.85602 | 37027 ft | 443 kts | 182° |
| 2026-05-06 20:38 | 55.02609 | 5.85807 | 37040 ft | 443 kts | 182° |
| 2026-05-06 20:38 | 54.96444 | 5.86175 | 37042 ft | 444 kts | 180° |
| 2026-05-06 20:39 | 54.90281 | 5.87068 | 37037 ft | 445 kts | 178° |
| 2026-05-06 20:39 | 54.84125 | 5.88078 | 37021 ft | 444 kts | 178° |
| 2026-05-06 20:40 | 54.77963 | 5.88990 | 37024 ft | 444 kts | 179° |
| 2026-05-06 20:40 | 54.71805 | 5.89818 | 37032 ft | 444 kts | 179° |
| 2026-05-06 20:41 | 54.65647 | 5.90643 | 37034 ft | 444 kts | 179° |
| 2026-05-06 20:41 | 54.59525 | 5.91471 | 37015 ft | 444 kts | 179° |
| 2026-05-06 20:42 | 54.53367 | 5.92308 | 37017 ft | 444 kts | 179° |
| 2026-05-06 20:42 | 54.47207 | 5.93150 | 37020 ft | 444 kts | 178° |
| 2026-05-06 20:43 | 54.41050 | 5.93997 | 37025 ft | 444 kts | 179° |
| 2026-05-06 20:43 | 54.34888 | 5.94828 | 37014 ft | 444 kts | 178° |
| 2026-05-06 20:44 | 54.28731 | 5.95645 | 37014 ft | 444 kts | 178° |
| 2026-05-06 20:44 | 54.22615 | 5.96466 | 37017 ft | 444 kts | 178° |
| 2026-05-06 20:45 | 54.16451 | 5.97309 | 37025 ft | 444 kts | 178° |
| 2026-05-06 20:45 | 54.10281 | 5.98138 | 37027 ft | 444 kts | 179° |
| 2026-05-06 20:46 | 54.04114 | 5.98947 | 37003 ft | 445 kts | 178° |
| 2026-05-06 20:46 | 53.97932 | 5.99768 | 37007 ft | 445 kts | 178° |
| 2026-05-06 20:47 | 53.91753 | 6.00598 | 37014 ft | 446 kts | 178° |
| 2026-05-06 20:47 | 53.85570 | 6.01421 | 37012 ft | 446 kts | 178° |
| 2026-05-06 20:48 | 53.79383 | 6.02228 | 36996 ft | 446 kts | 178° |
| 2026-05-06 20:48 | 53.73196 | 6.03028 | 37003 ft | 446 kts | 178° |
| 2026-05-06 20:49 | 53.66999 | 6.03832 | 36991 ft | 446 kts | 178° |
| 2026-05-06 20:49 | 53.60852 | 6.04643 | 36989 ft | 446 kts | 178° |
| 2026-05-06 20:50 | 53.54666 | 6.05457 | 36983 ft | 446 kts | 178° |
| 2026-05-06 20:50 | 53.48465 | 6.06251 | 36971 ft | 447 kts | 178° |
| 2026-05-06 20:51 | 53.42262 | 6.07061 | 36986 ft | 447 kts | 178° |
| 2026-05-06 20:51 | 53.36062 | 6.07864 | 36997 ft | 447 kts | 178° |
| 2026-05-06 20:52 | 53.29852 | 6.08665 | 37000 ft | 447 kts | 178° |
| 2026-05-06 20:52 | 53.23644 | 6.09455 | 36997 ft | 447 kts | 178° |
| 2026-05-06 20:53 | 53.17434 | 6.10249 | 37000 ft | 448 kts | 178° |
| 2026-05-06 20:53 | 53.11229 | 6.11041 | 36998 ft | 447 kts | 178° |
| 2026-05-06 20:54 | 53.05019 | 6.11823 | 36975 ft | 447 kts | 178° |
| 2026-05-06 20:54 | 52.98813 | 6.12619 | 36974 ft | 447 kts | 178° |
| 2026-05-06 20:55 | 52.92585 | 6.13414 | 36973 ft | 447 kts | 178° |
| 2026-05-06 20:55 | 52.86414 | 6.14179 | 36970 ft | 447 kts | 178° |
| 2026-05-06 20:56 | 52.80217 | 6.14947 | 36960 ft | 447 kts | 178° |
| 2026-05-06 20:56 | 52.74054 | 6.15720 | 36962 ft | 447 kts | 178° |
| 2026-05-06 20:57 | 52.67857 | 6.16508 | 36966 ft | 446 kts | 178° |
| 2026-05-06 20:57 | 52.61659 | 6.17289 | 36965 ft | 446 kts | 178° |
| 2026-05-06 20:58 | 52.55471 | 6.18057 | 36957 ft | 446 kts | 178° |
| 2026-05-06 20:58 | 52.50317 | 6.18694 | 36963 ft | 446 kts | 178° |
| 2026-05-06 20:59 | 52.44126 | 6.19459 | 36967 ft | 446 kts | 178° |
| 2026-05-06 20:59 | 52.37942 | 6.20227 | 36967 ft | 446 kts | 178° |
| 2026-05-06 21:00 | 52.31745 | 6.20985 | 36960 ft | 446 kts | 178° |
| 2026-05-06 21:00 | 52.25558 | 6.21742 | 36965 ft | 446 kts | 178° |
| 2026-05-06 21:01 | 52.19372 | 6.22502 | 36968 ft | 446 kts | 177° |
| 2026-05-06 21:01 | 52.13181 | 6.23261 | 36967 ft | 446 kts | 177° |
| 2026-05-06 21:02 | 52.06986 | 6.24016 | 36959 ft | 446 kts | 177° |
| 2026-05-06 21:02 | 52.00803 | 6.24866 | 36959 ft | 447 kts | 172° |
| 2026-05-06 21:03 | 51.94904 | 6.28089 | 36954 ft | 451 kts | 153° |
| 2026-05-06 21:03 | 51.89827 | 6.34123 | 36948 ft | 454 kts | 143° |
| 2026-05-06 21:04 | 51.84910 | 6.40555 | 36936 ft | 454 kts | 143° |
| 2026-05-06 21:04 | 51.79971 | 6.46950 | 36939 ft | 455 kts | 143° |
| 2026-05-06 21:05 | 51.75037 | 6.53340 | 36944 ft | 455 kts | 143° |
| 2026-05-06 21:05 | 51.70108 | 6.59735 | 36939 ft | 455 kts | 143° |
| 2026-05-06 21:06 | 51.65172 | 6.66119 | 36940 ft | 455 kts | 143° |
| 2026-05-06 21:06 | 51.62703 | 6.69296 | 36735 ft | 455 kts | 143° |
| 2026-05-06 21:06 | 51.60231 | 6.72477 | 36466 ft | 454 kts | 143° |
| 2026-05-06 21:06 | 51.57770 | 6.75639 | 36213 ft | 453 kts | 143° |
| 2026-05-06 21:07 | 51.55309 | 6.78798 | 35958 ft | 452 kts | 143° |
| 2026-05-06 21:07 | 51.52861 | 6.81940 | 35703 ft | 451 kts | 143° |
| 2026-05-06 21:07 | 51.50412 | 6.85077 | 35457 ft | 450 kts | 143° |
| 2026-05-06 21:07 | 51.47957 | 6.88205 | 35213 ft | 450 kts | 143° |
| 2026-05-06 21:08 | 51.45502 | 6.91327 | 34967 ft | 450 kts | 143° |
| 2026-05-06 21:08 | 51.43051 | 6.94439 | 34715 ft | 449 kts | 143° |
| 2026-05-06 21:08 | 51.40603 | 6.97545 | 34485 ft | 449 kts | 143° |
| 2026-05-06 21:08 | 51.38156 | 7.00646 | 34253 ft | 449 kts | 143° |
| 2026-05-06 21:09 | 51.35710 | 7.03750 | 34017 ft | 448 kts | 143° |
| 2026-05-06 21:09 | 51.33271 | 7.06845 | 33757 ft | 447 kts | 143° |
| 2026-05-06 21:09 | 51.30830 | 7.09941 | 33486 ft | 447 kts | 143° |
| 2026-05-06 21:09 | 51.28395 | 7.13021 | 33206 ft | 447 kts | 143° |
| 2026-05-06 21:10 | 51.25824 | 7.15786 | 32924 ft | 445 kts | 153° |
| 2026-05-06 21:10 | 51.23065 | 7.18006 | 32609 ft | 444 kts | 155° |
| 2026-05-06 21:10 | 51.20277 | 7.20197 | 31507 ft | 450 kts | 155° |
| 2026-05-06 21:10 | 51.17471 | 7.22415 | 30496 ft | 451 kts | 155° |
| 2026-05-06 21:11 | 51.14656 | 7.24650 | 29380 ft | 453 kts | 155° |
| 2026-05-06 21:11 | 51.11837 | 7.26889 | 28370 ft | 452 kts | 154° |
| 2026-05-06 21:11 | 51.09037 | 7.29139 | 27356 ft | 453 kts | 154° |
| 2026-05-06 21:11 | 51.06231 | 7.31439 | 26337 ft | 452 kts | 154° |
| 2026-05-06 21:12 | 51.03442 | 7.33757 | 25432 ft | 451 kts | 153° |
| 2026-05-06 21:12 | 51.00695 | 7.36058 | 24939 ft | 444 kts | 153° |
| 2026-05-06 21:12 | 50.98006 | 7.38302 | 24324 ft | 441 kts | 153° |
| 2026-05-06 21:12 | 50.95297 | 7.40539 | 23717 ft | 437 kts | 154° |
| 2026-05-06 21:13 | 50.92608 | 7.42740 | 23042 ft | 434 kts | 154° |
| 2026-05-06 21:13 | 50.89890 | 7.44960 | 22444 ft | 432 kts | 153° |
| 2026-05-06 21:13 | 50.87234 | 7.47128 | 21829 ft | 428 kts | 153° |
| 2026-05-06 21:13 | 50.84594 | 7.49284 | 21246 ft | 425 kts | 153° |
| 2026-05-06 21:14 | 50.82009 | 7.51397 | 20660 ft | 422 kts | 153° |
| 2026-05-06 21:14 | 50.79414 | 7.53517 | 20060 ft | 419 kts | 154° |
| 2026-05-06 21:14 | 50.76835 | 7.55617 | 19482 ft | 416 kts | 154° |
| 2026-05-06 21:14 | 50.74268 | 7.57711 | 18897 ft | 413 kts | 154° |
| 2026-05-06 21:15 | 50.71720 | 7.59787 | 18329 ft | 410 kts | 154° |
| 2026-05-06 21:15 | 50.69190 | 7.61845 | 17711 ft | 408 kts | 154° |
| 2026-05-06 21:15 | 50.66675 | 7.63881 | 17236 ft | 405 kts | 154° |
| 2026-05-06 21:15 | 50.64178 | 7.65894 | 16740 ft | 402 kts | 154° |
| 2026-05-06 21:16 | 50.61690 | 7.67898 | 16255 ft | 400 kts | 154° |
| 2026-05-06 21:16 | 50.59219 | 7.69887 | 15777 ft | 398 kts | 154° |
| 2026-05-06 21:16 | 50.56762 | 7.71872 | 15330 ft | 396 kts | 154° |
| 2026-05-06 21:16 | 50.54343 | 7.73824 | 14884 ft | 395 kts | 154° |
| 2026-05-06 21:17 | 50.51874 | 7.75810 | 14434 ft | 392 kts | 154° |
| 2026-05-06 21:17 | 50.49452 | 7.77755 | 13991 ft | 390 kts | 154° |
| 2026-05-06 21:17 | 50.47037 | 7.79691 | 13533 ft | 389 kts | 154° |
| 2026-05-06 21:17 | 50.44637 | 7.81618 | 13066 ft | 387 kts | 153° |
| 2026-05-06 21:18 | 50.42380 | 7.83887 | 12483 ft | 386 kts | 143° |
| 2026-05-06 21:18 | 50.40240 | 7.86510 | 11496 ft | 394 kts | 142° |
| 2026-05-06 21:18 | 50.38174 | 7.89084 | 11093 ft | 370 kts | 143° |
| 2026-05-06 21:18 | 50.36207 | 7.91553 | 10917 ft | 354 kts | 143° |
| 2026-05-06 21:19 | 50.34352 | 7.93881 | 10869 ft | 331 kts | 143° |
| 2026-05-06 21:19 | 50.32600 | 7.96064 | 10864 ft | 314 kts | 143° |
| 2026-05-06 21:19 | 50.30897 | 7.98169 | 10871 ft | 316 kts | 144° |
| 2026-05-06 21:19 | 50.29161 | 8.00302 | 10873 ft | 319 kts | 144° |
| 2026-05-06 21:20 | 50.27414 | 8.02450 | 10884 ft | 320 kts | 143° |
| 2026-05-06 21:20 | 50.25808 | 8.04860 | 10879 ft | 322 kts | 130° |
| 2026-05-06 21:20 | 50.24440 | 8.07647 | 10885 ft | 323 kts | 129° |
| 2026-05-06 21:20 | 50.23078 | 8.10432 | 10884 ft | 323 kts | 129° |
| 2026-05-06 21:21 | 50.21711 | 8.13209 | 10876 ft | 323 kts | 129° |
| 2026-05-06 21:21 | 50.20342 | 8.15985 | 10874 ft | 323 kts | 128° |
| 2026-05-06 21:21 | 50.19291 | 8.19043 | 10679 ft | 317 kts | 109° |
| 2026-05-06 21:21 | 50.18987 | 8.22418 | 10056 ft | 314 kts | 87° |
| 2026-05-06 21:22 | 50.19178 | 8.25804 | 9319 ft | 313 kts | 85° |
| 2026-05-06 21:22 | 50.19382 | 8.29171 | 8633 ft | 309 kts | 85° |
| 2026-05-06 21:22 | 50.19575 | 8.32438 | 8283 ft | 298 kts | 86° |
| 2026-05-06 21:22 | 50.19757 | 8.35630 | 7981 ft | 293 kts | 86° |
| 2026-05-06 21:23 | 50.19931 | 8.38789 | 7874 ft | 292 kts | 86° |
| 2026-05-06 21:23 | 50.20105 | 8.41955 | 7883 ft | 293 kts | 86° |
| 2026-05-06 21:23 | 50.20304 | 8.45121 | 7868 ft | 293 kts | 85° |
| 2026-05-06 21:23 | 50.20524 | 8.48285 | 7868 ft | 293 kts | 84° |
| 2026-05-06 21:24 | 50.20750 | 8.51446 | 7861 ft | 293 kts | 84° |
| 2026-05-06 21:24 | 50.20978 | 8.54603 | 7862 ft | 293 kts | 84° |
| 2026-05-06 21:24 | 50.21204 | 8.57765 | 7865 ft | 293 kts | 85° |
| 2026-05-06 21:24 | 50.21425 | 8.60929 | 7864 ft | 293 kts | 85° |
| 2026-05-06 21:25 | 50.21642 | 8.64050 | 7866 ft | 293 kts | 85° |
| 2026-05-06 21:25 | 50.21860 | 8.67218 | 7861 ft | 293 kts | 85° |
| 2026-05-06 21:25 | 50.22075 | 8.70380 | 7861 ft | 293 kts | 85° |
| 2026-05-06 21:25 | 50.22289 | 8.73541 | 7861 ft | 293 kts | 85° |
| 2026-05-06 21:26 | 50.22499 | 8.76699 | 7848 ft | 292 kts | 85° |
| 2026-05-06 21:26 | 50.22708 | 8.79836 | 7534 ft | 288 kts | 85° |
| 2026-05-06 21:26 | 50.22912 | 8.82901 | 7298 ft | 280 kts | 85° |
| 2026-05-06 21:26 | 50.23111 | 8.85905 | 6933 ft | 277 kts | 85° |
| 2026-05-06 21:27 | 50.23265 | 8.88891 | 6582 ft | 274 kts | 94° |
| 2026-05-06 21:27 | 50.22782 | 8.91688 | 6195 ft | 266 kts | 123° |
| 2026-05-06 21:27 | 50.21533 | 8.93726 | 5783 ft | 258 kts | 152° |
| 2026-05-06 21:27 | 50.19861 | 8.94623 | 5359 ft | 255 kts | 171° |
| 2026-05-06 21:28 | 50.18114 | 8.95067 | 5057 ft | 256 kts | 174° |
| 2026-05-06 21:28 | 50.16346 | 8.95450 | 4802 ft | 257 kts | 175° |
| 2026-05-06 21:28 | 50.14576 | 8.95740 | 4551 ft | 256 kts | 180° |
| 2026-05-06 21:28 | 50.12905 | 8.95040 | 4286 ft | 250 kts | 217° |
| 2026-05-06 21:29 | 50.11892 | 8.92953 | 4072 ft | 239 kts | 257° |
| 2026-05-06 21:29 | 50.11904 | 8.90501 | 4013 ft | 220 kts | 282° |
| 2026-05-06 21:29 | 50.12177 | 8.88197 | 4013 ft | 216 kts | 279° |
| 2026-05-06 21:29 | 50.12147 | 8.85885 | 4015 ft | 210 kts | 259° |
| 2026-05-06 21:30 | 50.11769 | 8.83770 | 4010 ft | 198 kts | 253° |
| 2026-05-06 21:30 | 50.11315 | 8.81771 | 4017 ft | 194 kts | 252° |
| 2026-05-06 21:30 | 50.10859 | 8.79825 | 4021 ft | 194 kts | 252° |
| 2026-05-06 21:30 | 50.10390 | 8.77839 | 3894 ft | 195 kts | 252° |
| 2026-05-06 21:31 | 50.09922 | 8.75854 | 3654 ft | 196 kts | 251° |
| 2026-05-06 21:31 | 50.09451 | 8.73862 | 3380 ft | 196 kts | 252° |
| 2026-05-06 21:31 | 50.08980 | 8.71876 | 3137 ft | 194 kts | 252° |
| 2026-05-06 21:31 | 50.08525 | 8.69955 | 2841 ft | 183 kts | 253° |
| 2026-05-06 21:32 | 50.08096 | 8.68148 | 2567 ft | 173 kts | 252° |
| 2026-05-06 21:32 | 50.07336 | 8.64950 | 2121 ft | 144 kts | 253° |
| 2026-05-06 21:32 | 50.06999 | 8.63531 | 1914 ft | 137 kts | 253° |
| 2026-05-06 21:33 | 50.06674 | 8.62160 | 1718 ft | 133 kts | 253° |
| 2026-05-06 21:33 | 50.06355 | 8.60819 | 1518 ft | 132 kts | 253° |
| 2026-05-06 21:33 | 50.06034 | 8.59468 | 1319 ft | 134 kts | 252° |
| 2026-05-06 21:33 | 50.05715 | 8.58128 | 1111 ft | 133 kts | 252° |
| 2026-05-06 21:34 | 50.05417 | 8.56879 | 928 ft | 132 kts | 251° |
| 2026-05-06 21:34 | 50.05099 | 8.55542 | 727 ft | 132 kts | 250° |
| 2026-05-06 21:34 | 50.04795 | 8.54251 | 543 ft | 131 kts | 252° |
| 2026-05-06 21:34 | 50.04478 | 8.52940 | 365 ft | 127 kts | 250° |
| 2026-05-06 21:35 | 50.04223 | 8.51856 | 336 ft | 86 kts | 250° |
| 2026-05-06 21:35 | 50.04070 | 8.51228 | 328 ft | 44 kts | 247° |
| 2026-05-06 21:35 | 50.03930 | 8.50950 | 327 ft | 25 kts | 224° |
| 2026-05-06 21:35 | 50.03816 | 8.50838 | 332 ft | 14 kts | 168° |
| 2026-05-06 21:36 | 50.03791 | 8.50964 | 334 ft | 15 kts | 73° |
| 2026-05-06 21:36 | 50.03835 | 8.51154 | 336 ft | 24 kts | 70° |
| 2026-05-06 21:36 | 50.03899 | 8.51418 | 333 ft | 23 kts | 69° |
| 2026-05-06 21:36 | 50.03956 | 8.51652 | 334 ft | 24 kts | 70° |
| 2026-05-06 21:37 | 50.04016 | 8.51901 | 334 ft | 25 kts | 69° |
| 2026-05-06 21:37 | 50.04076 | 8.52156 | 351 ft | 25 kts | 69° |
| 2026-05-06 21:37 | 50.04138 | 8.52414 | 346 ft | 26 kts | 69° |
| 2026-05-06 21:37 | 50.04201 | 8.52676 | 356 ft | 26 kts | 69° |
| 2026-05-06 21:38 | 50.04265 | 8.52945 | 354 ft | 27 kts | 70° |
| 2026-05-06 21:38 | 50.04330 | 8.53215 | 364 ft | 26 kts | 70° |
| 2026-05-06 21:38 | 50.04387 | 8.53456 | 374 ft | 22 kts | 72° |
| 2026-05-06 21:38 | 50.04407 | 8.53689 | 375 ft | 22 kts | 85° |
| 2026-05-06 21:39 | 50.04424 | 8.53936 | 375 ft | 24 kts | 83° |
| 2026-05-06 21:39 | 50.04439 | 8.54207 | 375 ft | 26 kts | 83° |
| 2026-05-06 21:39 | 50.04448 | 8.54503 | 368 ft | 27 kts | 102° |
| 2026-05-06 21:39 | 50.04344 | 8.54747 | 359 ft | 28 kts | 140° |
| 2026-05-06 21:40 | 50.04177 | 8.54851 | 357 ft | 25 kts | 159° |
| 2026-05-06 21:40 | 50.04050 | 8.54923 | 353 ft | 12 kts | 157° |
| 2026-05-06 21:40 | 50.04017 | 8.55005 | 355 ft | 8 kts | 87° |
| 2026-05-06 21:40 | 50.04029 | 8.55083 | 361 ft | 7 kts | 74° |
| 2026-05-06 21:41 | 50.04048 | 8.55159 | 355 ft | 10 kts | 67° |
| 2026-05-06 21:41 | 50.04086 | 8.55298 | 361 ft | 18 kts | 67° |
| 2026-05-06 21:41 | 50.04121 | 8.55440 | 354 ft | 24 kts | 71° |
| 2026-05-06 21:41 | 50.04182 | 8.55692 | 352 ft | 26 kts | 67° |
| 2026-05-06 21:42 | 50.04231 | 8.55907 | 356 ft | 18 kts | 68° |
| 2026-05-06 21:42 | 50.04321 | 8.55942 | 359 ft | 15 kts | 341° |
| 2026-05-06 21:42 | 50.04427 | 8.55911 | 357 ft | 16 kts | 7° |
| 2026-05-06 21:42 | 50.04535 | 8.55961 | 361 ft | 16 kts | 27° |
| 2026-05-06 21:43 | 50.04588 | 8.56106 | 359 ft | 15 kts | 70° |
| 2026-05-06 21:43 | 50.04623 | 8.56254 | 357 ft | 14 kts | 69° |
| 2026-05-06 21:43 | 50.04657 | 8.56386 | 356 ft | 12 kts | 68° |
| 2026-05-06 21:43 | 50.04684 | 8.56494 | 358 ft | 9 kts | 67° |
| 2026-05-06 21:44 | 50.04725 | 8.56523 | 360 ft | 7 kts | 348° |
| 2026-05-06 21:44 | 50.04765 | 8.56502 | 359 ft | 5 kts | 339° |
| 2026-05-06 21:44 | 50.04780 | 8.56494 | 361 ft | 0 kts | 340° |